Terminal Aerodrome Forecast
Issued by NWS Portland, ME

Home | Current Version | Previous Version | Text Only | Print | Product List | Glossary On
Versions: 1 2 3 4 5 6 7 8 9 10 11 12 13 14 15 16 17 18
000
FTUS41 KGYX 201120
TAFCON
TAF
KCON 201120Z 2012/2112 VRB03KT P6SM BKN050
     FM201500 20008KT P6SM SCT050 BKN250
     FM210200 18005KT P6SM BKN035
     FM210600 15005KT 4SM BR BKN015=

USA.gov is the U.S. government's official web portal to all federal, state and local government web resources and services.